Terminal Aerodrome Forecast
Issued by NWS

Home | Current Version | Previous Version | Text Only | Print | Product List | Glossary On
Versions: 1 2 3 4 5 6 7 8 9 10 11 12 13
000
FTUS41 KBOX 191120
TAFBED
TAF
KBED 191120Z 1912/2012 20004KT P6SM FEW250
     FM191600 22009KT P6SM SKC
     FM200600 24005KT P6SM FEW250=

USA.gov is the U.S. government's official web portal to all federal, state and local government web resources and services.